Time;durP1;ratioP1;P1;durP2;ratioP2;P2;SDS_P1;SDS_P2;PMS_P1;PMS_P2;Temp;Humidity;BMP_temperature;BMP_pressure;BME280_temperature;BME280_humidity;BME280_pressure;Samples;Min_cycle;Max_cycle;Signal;HPM_P1;HPM_P2
2024/01/02 00:00:04;;;;;;;1999.90;999.90;;;7.30;99.90;;;;;;5029468;28;20025;-70
2024/01/02 00:02:30;;;;;;;;;;;7.30;99.90;;;;;;5026336;28;20767;-71
2024/01/02 00:04:56;;;;;;;1999.90;999.90;;;7.30;99.90;;;;;;5027434;28;19913;-70
2024/01/02 00:07:21;;;;;;;1999.90;999.90;;;7.30;99.90;;;;;;5024023;28;20045;-71
2024/01/02 00:09:47;;;;;;;1999.90;999.90;;;7.30;99.90;;;;;;5020789;28;20025;-71
2024/01/02 00:12:13;;;;;;;1999.90;999.90;;;7.40;99.90;;;;;;5027036;28;20066;-70
2024/01/02 00:14:38;;;;;;;1999.90;999.90;;;7.30;99.90;;;;;;5031799;28;20026;-70
2024/01/02 00:17:04;;;;;;;1999.90;999.90;;;7.40;99.90;;;;;;5027849;28;20033;-70
2024/01/02 00:19:30;;;;;;;1999.90;999.90;;;7.40;99.90;;;;;;5032179;28;20036;-70
2024/01/02 00:21:55;;;;;;;1999.90;999.90;;;7.40;99.90;;;;;;5025663;28;20033;-71
2024/01/02 00:24:21;;;;;;;1999.90;999.90;;;7.40;99.90;;;;;;5032142;28;20053;-70
2024/01/02 00:26:47;;;;;;;1999.90;999.90;;;7.40;99.90;;;;;;5028975;28;20064;-71
2024/01/02 00:29:13;;;;;;;1999.90;999.90;;;7.40;99.90;;;;;;5028253;28;20025;-70
2024/01/02 00:31:40;;;;;;;1999.90;999.90;;;7.40;99.90;;;;;;5027059;28;20392;-70
2024/01/02 00:34:06;;;;;;;1999.90;999.90;;;7.40;99.90;;;;;;5027558;28;20302;-70
2024/01/02 00:36:31;;;;;;;1999.90;999.90;;;7.50;99.90;;;;;;5024615;28;20021;-70
2024/01/02 00:38:57;;;;;;;1999.90;999.90;;;7.50;99.90;;;;;;5026817;28;20365;-70
2024/01/02 00:41:23;;;;;;;1999.90;999.90;;;7.40;99.90;;;;;;5018186;28;20756;-70
2024/01/02 00:43:49;;;;;;;1999.90;999.90;;;7.50;99.90;;;;;;5036288;28;20028;-70
2024/01/02 00:46:15;;;;;;;1999.90;999.90;;;7.50;99.90;;;;;;5036058;28;20037;-70
2024/01/02 00:48:40;;;;;;;1999.90;999.90;;;7.50;99.90;;;;;;5032241;28;20049;-71
2024/01/02 00:51:06;;;;;;;1999.90;999.90;;;7.50;99.90;;;;;;5032763;28;20088;-70
2024/01/02 00:53:32;;;;;;;1999.90;999.90;;;7.50;99.90;;;;;;5025575;28;20038;-70
2024/01/02 00:55:58;;;;;;;1999.90;999.90;;;7.50;99.90;;;;;;5029847;28;20092;-72
2024/01/02 00:58:23;;;;;;;1999.90;999.90;;;7.50;99.90;;;;;;5024675;28;20040;-70
2024/01/02 01:00:49;;;;;;;1999.90;999.90;;;7.50;99.90;;;;;;5029572;28;20124;-70
2024/01/02 01:03:15;;;;;;;1999.90;999.90;;;7.50;99.90;;;;;;5023525;28;20032;-70
2024/01/02 01:05:40;;;;;;;1999.90;999.90;;;7.50;99.90;;;;;;5020158;28;20026;-70
2024/01/02 01:08:06;;;;;;;1999.90;999.90;;;7.60;99.90;;;;;;5023627;28;20101;-71
2024/01/02 01:10:32;;;;;;;1999.90;999.90;;;7.60;99.90;;;;;;5026022;28;20432;-71
2024/01/02 01:12:57;;;;;;;1999.90;999.90;;;7.60;99.90;;;;;;5028173;28;20532;-71
2024/01/02 01:15:23;;;;;;;1999.90;999.90;;;7.60;99.90;;;;;;5043315;28;20036;-70
2024/01/02 01:17:49;;;;;;;1999.90;999.90;;;7.60;99.90;;;;;;5030602;28;20417;-71
2024/01/02 01:20:14;;;;;;;1999.90;999.90;;;7.60;99.90;;;;;;5032524;28;20029;-71
2024/01/02 01:22:40;;;;;;;1999.90;999.90;;;7.60;99.90;;;;;;5032029;28;20033;-71
2024/01/02 01:25:06;;;;;;;1999.90;999.90;;;7.60;99.90;;;;;;5026950;28;20116;-71
2024/01/02 01:27:32;;;;;;;1999.90;999.90;;;7.60;99.90;;;;;;5026870;28;20036;-71
2024/01/02 01:29:57;;;;;;;1999.90;999.90;;;7.60;99.90;;;;;;5035351;28;20034;-71
2024/01/02 01:32:23;;;;;;;1999.90;999.90;;;7.60;99.90;;;;;;5026098;28;20392;-72
2024/01/02 01:34:49;;;;;;;1999.90;999.90;;;7.60;99.90;;;;;;5031744;28;20037;-71
2024/01/02 01:37:15;;;;;;;1999.90;999.90;;;7.60;99.90;;;;;;5034614;28;20041;-70
2024/01/02 01:39:40;;;;;;;1999.90;999.90;;;7.60;99.90;;;;;;5033628;28;20087;-71
2024/01/02 01:42:06;;;;;;;1999.90;999.90;;;7.60;99.90;;;;;;5033349;28;20140;-70
2024/01/02 01:44:32;;;;;;;1999.90;999.90;;;7.60;99.90;;;;;;5034423;28;20026;-71
2024/01/02 01:46:57;;;;;;;1999.90;999.90;;;7.60;99.90;;;;;;5034693;28;20345;-71
2024/01/02 01:49:23;;;;;;;1999.90;999.90;;;7.70;99.90;;;;;;5034102;28;20037;-71
2024/01/02 01:51:51;;;;;;;1999.90;999.90;;;7.60;99.90;;;;;;5035434;28;20105;-71
2024/01/02 01:54:18;;;;;;;1999.90;999.90;;;7.70;99.90;;;;;;5034775;28;20026;-71
2024/01/02 01:56:44;;;;;;;1999.90;999.90;;;7.60;99.90;;;;;;5028682;28;20045;-70
2024/01/02 01:59:12;;;;;;;1999.90;999.90;;;7.60;99.90;;;;;;5022726;28;20044;-71
2024/01/02 02:01:38;;;;;;;1999.90;999.90;;;7.60;99.90;;;;;;5030647;28;20428;-71
2024/01/02 02:04:04;;;;;;;1999.90;999.90;;;7.70;99.90;;;;;;5032625;28;20424;-70
2024/01/02 02:06:30;;;;;;;1999.90;999.90;;;7.70;99.90;;;;;;5032812;28;20036;-70
2024/01/02 02:08:56;;;;;;;1999.90;999.90;;;7.70;99.90;;;;;;5028183;28;20025;-70
2024/01/02 02:11:23;;;;;;;1999.90;999.90;;;7.80;99.90;;;;;;5034312;28;20053;-71
2024/01/02 02:13:49;;;;;;;;;;;7.70;99.90;;;;;;5033459;28;20029;-71
2024/01/02 02:16:15;;;;;;;1999.90;999.90;;;7.80;99.90;;;;;;5034681;28;19984;-71
2024/01/02 02:18:41;;;;;;;1999.90;999.90;;;7.80;99.90;;;;;;5033604;28;20108;-71
2024/01/02 02:21:06;;;;;;;1999.90;999.90;;;7.70;99.90;;;;;;5034319;28;20384;-71
2024/01/02 02:23:33;;;;;;;1999.90;999.90;;;7.70;99.90;;;;;;5033724;28;20037;-70
2024/01/02 02:25:59;;;;;;;1999.90;999.90;;;7.70;99.90;;;;;;5033551;28;20452;-70
2024/01/02 02:28:25;;;;;;;1999.90;999.90;;;7.70;99.90;;;;;;5030753;28;20025;-71
2024/01/02 02:30:50;;;;;;;1999.90;999.90;;;7.80;99.90;;;;;;5034072;28;20032;-71
2024/01/02 02:33:16;;;;;;;1999.90;999.90;;;7.80;99.90;;;;;;5028852;28;20068;-71
2024/01/02 02:35:42;;;;;;;1999.90;999.90;;;7.80;99.90;;;;;;5030347;28;20053;-71
2024/01/02 02:38:07;;;;;;;1999.90;999.90;;;7.80;99.90;;;;;;5030957;28;20040;-71
2024/01/02 02:40:35;;;;;;;1999.90;999.90;;;7.80;99.90;;;;;;5027838;28;20044;-70
2024/01/02 02:43:01;;;;;;;1999.90;999.90;;;7.80;99.90;;;;;;5018755;28;20436;-70
2024/01/02 02:45:27;;;;;;;1999.90;999.90;;;7.90;99.90;;;;;;5032920;28;20036;-70
2024/01/02 02:47:53;;;;;;;1999.90;999.90;;;7.90;99.90;;;;;;5035898;28;20352;-70
2024/01/02 02:50:19;;;;;;;1999.90;999.90;;;7.90;99.90;;;;;;5038634;28;20285;-70
2024/01/02 02:52:45;;;;;;;1999.90;999.90;;;7.90;99.90;;;;;;5042811;28;20086;-70
2024/01/02 02:55:10;;;;;;;1999.90;999.90;;;7.90;99.90;;;;;;5041560;28;20416;-70
2024/01/02 02:57:36;;;;;;;1999.90;999.90;;;7.90;99.90;;;;;;5031831;28;20092;-70
2024/01/02 03:00:04;;;;;;;1999.90;999.90;;;7.90;99.90;;;;;;5041117;28;20078;-70
2024/01/02 03:02:29;;;;;;;1999.90;999.90;;;8.00;99.90;;;;;;5047654;28;20071;-70
2024/01/02 03:04:55;;;;;;;1999.90;999.90;;;8.00;99.90;;;;;;5028264;28;20363;-71
2024/01/02 03:07:21;;;;;;;1999.90;999.90;;;8.00;99.90;;;;;;5036101;28;20264;-71
2024/01/02 03:09:47;;;;;;;1999.90;999.90;;;8.00;99.90;;;;;;5035474;28;20074;-71
2024/01/02 03:12:13;;;;;;;1999.90;999.90;;;8.00;99.90;;;;;;5048213;28;20037;-71
2024/01/02 03:14:39;;;;;;;1999.90;999.90;;;8.10;99.90;;;;;;5030468;28;20029;-71
2024/01/02 03:17:04;;;;;;;1999.90;999.90;;;8.00;99.90;;;;;;5038171;28;20029;-70
2024/01/02 03:19:30;;;;;;;1999.90;999.90;;;8.00;99.90;;;;;;5035204;28;20686;-70
2024/01/02 03:21:56;;;;;;;1999.90;999.90;;;8.00;99.90;;;;;;5035376;28;20029;-71
2024/01/02 03:24:22;;;;;;;1999.90;999.90;;;8.00;99.90;;;;;;5033873;28;20329;-71
2024/01/02 03:26:48;;;;;;;1999.90;999.90;;;8.10;99.90;;;;;;5036604;28;20020;-71
2024/01/02 03:29:16;;;;;;;1999.90;999.90;;;8.00;99.90;;;;;;5045995;28;20034;-71
2024/01/02 03:31:43;;;;;;;1999.90;999.90;;;8.00;99.90;;;;;;5031916;28;20021;-71
2024/01/02 03:34:08;;;;;;;1999.90;999.90;;;8.10;99.90;;;;;;5026709;28;20049;-71
2024/01/02 03:36:34;;;;;;;1999.90;999.90;;;8.10;99.90;;;;;;5033212;28;20763;-71
2024/01/02 03:39:00;;;;;;;1999.90;999.90;;;8.10;99.90;;;;;;5031738;28;20339;-70
2024/01/02 03:41:26;;;;;;;1999.90;999.90;;;8.10;99.90;;;;;;5024866;28;20469;-71
2024/01/02 03:43:51;;;;;;;1999.90;999.90;;;8.10;99.90;;;;;;5025183;28;20103;-70
2024/01/02 03:46:17;;;;;;;1999.90;999.90;;;8.10;99.90;;;;;;5032704;28;20416;-70
2024/01/02 03:48:43;;;;;;;1999.90;999.90;;;8.10;99.90;;;;;;5031946;28;20025;-70
2024/01/02 03:51:08;;;;;;;1999.90;999.90;;;8.10;99.90;;;;;;5032271;28;20100;-70
2024/01/02 03:53:34;;;;;;;1999.90;999.90;;;8.10;99.90;;;;;;5032439;28;20033;-70
2024/01/02 03:56:00;;;;;;;1999.90;999.90;;;8.20;99.90;;;;;;5032015;28;20428;-70
2024/01/02 03:58:27;;;;;;;1999.90;999.90;;;8.20;99.90;;;;;;5032268;28;20424;-70
2024/01/02 04:00:54;;;;;;;1999.90;999.90;;;8.20;99.90;;;;;;5031979;28;20029;-70
2024/01/02 04:03:20;;;;;;;1999.90;999.90;;;8.20;99.90;;;;;;5026465;28;20029;-71
2024/01/02 04:05:46;;;;;;;1999.90;999.90;;;8.20;99.90;;;;;;5023755;28;20105;-71
2024/01/02 04:08:12;;;;;;;1999.90;999.90;;;8.30;99.90;;;;;;5032762;28;20112;-70
2024/01/02 04:10:39;;;;;;;1999.90;999.90;;;8.30;99.90;;;;;;5037500;28;20057;-70
2024/01/02 04:13:05;;;;;;;1999.90;999.90;;;8.30;99.90;;;;;;5033399;28;20053;-70
2024/01/02 04:15:30;;;;;;;1999.90;999.90;;;8.30;99.90;;;;;;5028518;28;20063;-71
2024/01/02 04:17:56;;;;;;;1999.90;999.90;;;8.30;99.90;;;;;;5032136;28;20028;-70
2024/01/02 04:20:22;;;;;;;1999.90;999.90;;;8.30;99.90;;;;;;5042038;28;20029;-71
2024/01/02 04:22:53;;;;;;;1999.90;999.90;;;8.40;99.90;;;;;;5032765;28;20192;-70
2024/01/02 04:25:19;;;;;;;1999.90;999.90;;;8.40;99.90;;;;;;5045500;28;20021;-70
2024/01/02 04:27:44;;;;;;;1999.90;999.90;;;8.40;99.90;;;;;;5042309;28;20043;-70
2024/01/02 04:30:11;;;;;;;1999.90;999.90;;;8.40;99.90;;;;;;5030869;28;20578;-70
2024/01/02 04:32:37;;;;;;;1999.90;999.90;;;8.40;99.90;;;;;;5025297;28;20046;-70
2024/01/02 04:35:03;;;;;;;1999.90;999.90;;;8.50;99.90;;;;;;5023865;28;20057;-70
2024/01/02 04:37:29;;;;;;;1999.90;999.90;;;8.50;99.90;;;;;;5031372;28;20120;-70
2024/01/02 04:39:55;;;;;;;1999.90;999.90;;;8.50;99.90;;;;;;5031970;28;20061;-70
2024/01/02 04:42:21;;;;;;;1999.90;999.90;;;8.50;99.90;;;;;;5030676;28;20467;-70
2024/01/02 04:44:46;;;;;;;1999.90;999.90;;;8.60;99.90;;;;;;5030923;28;20029;-70
2024/01/02 04:47:12;;;;;;;1999.90;999.90;;;8.60;99.90;;;;;;5024015;28;20029;-70
2024/01/02 04:49:38;;;;;;;1999.90;999.90;;;8.60;99.90;;;;;;5031633;28;20037;-70
2024/01/02 04:52:04;;;;;;;1999.90;999.90;;;8.60;99.90;;;;;;5031470;28;20025;-70
2024/01/02 04:54:29;;;;;;;1999.90;999.90;;;8.60;99.90;;;;;;5024157;28;20033;-71
2024/01/02 04:56:56;;;;;;;1999.90;999.90;;;8.60;99.90;;;;;;5031386;28;20400;-70
2024/01/02 04:59:22;;;;;;;1999.90;999.90;;;8.60;99.90;;;;;;5031411;28;20290;-70
2024/01/02 05:01:47;;;;;;;1999.90;999.90;;;8.70;99.90;;;;;;5031866;28;20032;-70
2024/01/02 05:04:13;;;;;;;1999.90;999.90;;;8.70;99.90;;;;;;5031419;28;20033;-70
2024/01/02 05:06:39;;;;;;;1999.90;999.90;;;8.70;99.90;;;;;;5031316;28;20028;-70
2024/01/02 05:09:04;;;;;;;1999.90;999.90;;;8.70;99.90;;;;;;5031750;28;20025;-69
2024/01/02 05:11:38;;;;;;;1999.90;999.90;;;8.80;99.90;;;;;;5031218;28;20029;-70
2024/01/02 05:14:04;;;;;;;1999.90;999.90;;;8.80;99.90;;;;;;5020764;28;20107;-70
2024/01/02 05:16:30;;;;;;;1999.90;999.90;;;8.90;99.90;;;;;;5031351;28;21467;-72
2024/01/02 05:18:56;;;;;;;1999.90;999.90;;;9.00;99.90;;;;;;5035005;28;20034;-69
2024/01/02 05:21:21;;;;;;;1999.90;999.90;;;9.00;99.90;;;;;;5031099;28;20045;-71
2024/01/02 05:23:47;;;;;;;1999.90;999.90;;;9.10;99.90;;;;;;5031345;28;20022;-70
2024/01/02 05:26:13;;;;;;;1999.90;999.90;;;9.10;99.90;;;;;;5024813;28;20021;-71
2024/01/02 05:28:38;;;;;;;1999.90;999.90;;;9.20;99.90;;;;;;5034117;28;20082;-70
2024/01/02 05:31:04;;;;;;;1999.90;999.90;;;9.30;99.90;;;;;;5023329;28;20030;-69
2024/01/02 05:33:30;;;;;;;1999.90;999.90;;;9.40;99.90;;;;;;5022831;28;20115;-71
2024/01/02 05:35:56;;;;;;;1999.90;999.90;;;9.40;99.90;;;;;;5026222;28;20030;-69
2024/01/02 05:38:22;;;;;;;1999.90;999.90;;;9.50;99.90;;;;;;5029788;28;20542;-70
2024/01/02 05:40:48;;;;;;;1999.90;999.90;;;9.60;99.90;;;;;;5028593;28;20036;-70
2024/01/02 05:43:14;;;;;;;1999.90;999.90;;;9.70;99.90;;;;;;5024256;28;20053;-70
2024/01/02 05:45:40;;;;;;;1999.90;999.90;;;9.70;99.90;;;;;;5030704;28;20084;-69
2024/01/02 05:48:07;;;;;;;1999.90;999.90;;;9.80;99.90;;;;;;5031921;28;20028;-70
2024/01/02 05:50:32;;;;;;;;;;;9.90;99.90;;;;;;5028893;28;20068;-70
2024/01/02 05:52:58;;;;;;;1999.90;999.90;;;9.90;99.90;;;;;;5033622;28;19932;-69
2024/01/02 05:55:24;;;;;;;1999.90;999.90;;;10.00;99.90;;;;;;5033085;28;20040;-69
2024/01/02 05:57:50;;;;;;;1999.90;999.90;;;10.00;99.90;;;;;;5033523;28;20060;-70
2024/01/02 06:00:16;;;;;;;1999.90;999.90;;;10.10;99.90;;;;;;5028507;28;20076;-70
2024/01/02 06:02:42;;;;;;;1999.90;999.90;;;10.20;99.90;;;;;;5025904;28;20029;-70
2024/01/02 06:05:08;;;;;;;1999.90;999.90;;;10.20;99.90;;;;;;5032449;28;20026;-69
2024/01/02 06:07:34;;;;;;;1999.90;999.90;;;10.30;99.90;;;;;;5029184;28;20416;-69
2024/01/02 06:10:00;;;;;;;1999.90;999.90;;;10.40;99.90;;;;;;5028049;28;20064;-70
2024/01/02 06:12:25;;;;;;;1999.90;999.90;;;10.40;99.90;;;;;;5029065;28;20084;-71
2024/01/02 06:14:51;;;;;;;1999.90;999.90;;;10.50;99.90;;;;;;5033973;28;20053;-70
2024/01/02 06:17:17;;;;;;;1999.90;999.90;;;10.60;99.90;;;;;;5029659;28;20080;-70
2024/01/02 06:19:43;;;;;;;1999.90;999.90;;;10.70;99.90;;;;;;5024923;28;20057;-69
2024/01/02 06:22:09;;;;;;;1999.90;999.90;;;10.80;99.90;;;;;;5032195;28;20075;-71
2024/01/02 06:24:35;;;;;;;1999.90;999.90;;;10.80;99.90;;;;;;5031750;28;20053;-70
2024/01/02 06:27:00;;;;;;;1999.90;999.90;;;10.90;99.90;;;;;;5032643;28;20465;-70
2024/01/02 06:29:26;;;;;;;1999.90;999.90;;;10.90;99.90;;;;;;5031721;28;20029;-70
2024/01/02 06:31:52;;;;;;;1999.90;999.90;;;11.00;99.90;;;;;;5022569;28;20045;-70
2024/01/02 06:34:17;;;;;;;1999.90;999.90;;;11.00;99.90;;;;;;5029500;28;20113;-70
2024/01/02 06:36:43;;;;;;;1999.90;999.90;;;11.00;99.90;;;;;;5019936;28;20055;-71
2024/01/02 06:39:09;;;;;;;1999.90;999.90;;;11.10;99.90;;;;;;5030703;28;20048;-70
2024/01/02 06:41:35;;;;;;;1999.90;999.90;;;11.10;99.90;;;;;;5032842;28;20053;-70
2024/01/02 06:44:00;;;;;;;1999.90;999.90;;;11.10;99.90;;;;;;5026730;28;20053;-70
2024/01/02 06:46:26;;;;;;;1999.90;999.90;;;11.20;99.90;;;;;;5047200;28;20320;-70
2024/01/02 06:48:52;;;;;;;1999.90;999.90;;;11.20;99.90;;;;;;5027409;28;20018;-70
2024/01/02 06:51:17;;;;;;;1999.90;999.90;;;11.20;99.90;;;;;;5033660;28;20036;-71
2024/01/02 06:53:43;;;;;;;1999.90;999.90;;;11.10;99.90;;;;;;5034796;28;20037;-70
2024/01/02 06:56:09;;;;;;;1999.90;999.90;;;11.10;99.90;;;;;;5038812;28;20484;-71
2024/01/02 06:58:35;;;;;;;1999.90;999.90;;;11.10;99.90;;;;;;5034028;28;20037;-70
2024/01/02 07:01:01;;;;;;;1999.90;999.90;;;11.20;99.90;;;;;;5030978;28;20082;-71
2024/01/02 07:03:26;;;;;;;1999.90;999.90;;;11.10;99.90;;;;;;5013641;28;20029;-70
2024/01/02 07:05:52;;;;;;;1999.90;999.90;;;11.20;99.90;;;;;;5026384;28;20029;-70
2024/01/02 07:08:19;;;;;;;1999.90;999.90;;;11.10;99.90;;;;;;5043340;28;20021;-70
2024/01/02 07:10:44;;;;;;;1999.90;999.90;;;11.20;99.90;;;;;;5037309;28;20391;-70
2024/01/02 07:13:10;;;;;;;1999.90;999.90;;;11.20;99.90;;;;;;5027086;28;20039;-69
2024/01/02 07:15:37;;;;;;;1999.90;999.90;;;11.20;99.90;;;;;;5026531;28;20033;-69
2024/01/02 07:18:02;;;;;;;;;;;11.20;99.90;;;;;;5023437;28;20036;-70
2024/01/02 07:20:28;;;;;;;1999.90;999.90;;;11.20;99.90;;;;;;5028062;28;19913;-70
2024/01/02 07:22:54;;;;;;;1999.90;999.90;;;11.20;99.90;;;;;;5030386;28;20275;-70
2024/01/02 07:25:20;;;;;;;1999.90;999.90;;;11.20;99.90;;;;;;5033008;28;20331;-70
2024/01/02 07:27:45;;;;;;;1999.90;999.90;;;11.30;99.90;;;;;;5030491;28;20037;-70
2024/01/02 07:30:11;;;;;;;1999.90;999.90;;;11.20;99.90;;;;;;5029681;28;20040;-70
2024/01/02 07:32:38;;;;;;;1999.90;999.90;;;11.20;99.90;;;;;;5029952;28;20055;-70
2024/01/02 07:35:04;;;;;;;1999.90;999.90;;;11.20;99.90;;;;;;5029296;28;20298;-70
2024/01/02 07:37:31;;;;;;;1999.90;999.90;;;11.20;99.90;;;;;;5034095;28;20325;-70
2024/01/02 07:39:57;;;;;;;1999.90;999.90;;;11.20;99.90;;;;;;5031871;28;20028;-70
2024/01/02 07:42:23;;;;;;;1999.90;999.90;;;11.10;99.90;;;;;;5023202;28;20050;-69
2024/01/02 07:44:49;;;;;;;1999.90;999.90;;;11.20;99.90;;;;;;5015961;28;20026;-70
2024/01/02 07:47:16;;;;;;;1999.90;999.90;;;11.10;99.90;;;;;;5029606;28;20036;-70
2024/01/02 07:49:42;;;;;;;1999.90;999.90;;;11.10;99.90;;;;;;5030121;28;22006;-70
2024/01/02 07:52:08;;;;;;;1999.90;999.90;;;11.00;99.90;;;;;;5024073;28;20484;-70
2024/01/02 07:54:38;;;;;;;1999.90;999.90;;;11.00;99.90;;;;;;5034508;28;20029;-70
2024/01/02 07:57:05;;;;;;;1999.90;999.90;;;11.00;99.90;;;;;;5018468;28;20053;-70
2024/01/02 07:59:30;;;;;;;1999.90;999.90;;;11.00;99.90;;;;;;5031863;28;20431;-70
2024/01/02 08:01:56;;;;;;;1999.90;999.90;;;10.90;99.90;;;;;;5023435;28;20113;-69
2024/01/02 08:04:23;;;;;;;1999.90;999.90;;;10.90;99.90;;;;;;5031550;28;20037;-69
2024/01/02 08:06:50;;;;;;;1999.90;999.90;;;10.90;99.90;;;;;;5027964;28;20088;-70
2024/01/02 08:09:15;;;;;;;1999.90;999.90;;;10.90;99.90;;;;;;5026916;28;20037;-70
2024/01/02 08:11:41;;;;;;;1999.90;999.90;;;10.90;99.90;;;;;;5037394;28;20795;-70
2024/01/02 08:14:07;;;;;;;1999.90;999.90;;;10.90;99.90;;;;;;5030045;28;20045;-70
2024/01/02 08:16:32;;;;;;;1999.90;999.90;;;10.90;99.90;;;;;;5033118;28;20021;-70
2024/01/02 08:18:59;;;;;;;1999.90;999.90;;;10.90;99.90;;;;;;5028564;28;20030;-69
2024/01/02 08:21:24;;;;;;;1999.90;999.90;;;10.90;99.90;;;;;;5028324;28;20037;-70
2024/01/02 08:23:50;;;;;;;1999.90;999.90;;;10.90;99.90;;;;;;5015223;28;20029;-70
2024/01/02 08:26:16;;;;;;;1999.90;999.90;;;10.90;99.90;;;;;;5029770;28;20108;-69
2024/01/02 08:28:41;;;;;;;1999.90;999.90;;;10.90;99.90;;;;;;5029779;28;20427;-70
2024/01/02 08:31:07;;;;;;;1999.90;999.90;;;10.90;99.90;;;;;;5026723;28;20021;-70
2024/01/02 08:33:33;;;;;;;1999.90;999.90;;;11.00;99.90;;;;;;5024863;28;20458;-70
2024/01/02 08:35:59;;;;;;;1999.90;999.90;;;11.00;99.90;;;;;;5032659;28;20044;-70
2024/01/02 08:38:24;;;;;;;1999.90;999.90;;;11.00;99.90;;;;;;5037836;28;20040;-70
2024/01/02 08:40:50;;;;;;;1999.90;999.90;;;11.00;99.90;;;;;;5037614;28;20033;-70
2024/01/02 08:43:17;;;;;;;1999.90;999.90;;;11.00;99.90;;;;;;5039399;28;20045;-70
2024/01/02 08:45:44;;;;;;;1999.90;999.90;;;11.00;99.90;;;;;;5029930;28;20041;-70
2024/01/02 08:48:14;;;;;;;1999.90;999.90;;;11.00;99.90;;;;;;5020973;28;20107;-70
2024/01/02 08:50:42;;;;;;;1999.90;999.90;;;11.10;99.90;;;;;;5023777;28;20487;-70
2024/01/02 08:53:12;;;;;;;1999.90;999.90;;;11.10;99.90;;;;;;5034132;28;20072;-70
2024/01/02 08:55:38;;;;;;;1999.90;999.90;;;11.00;99.90;;;;;;5023078;28;20041;-70
2024/01/02 08:58:04;;;;;;;1999.90;999.90;;;11.00;99.90;;;;;;5033390;28;20017;-70
2024/01/02 09:00:30;;;;;;;1999.90;999.90;;;11.00;99.90;;;;;;5028904;28;20105;-70
2024/01/02 09:02:57;;;;;;;1999.90;999.90;;;11.00;99.90;;;;;;5031825;28;20579;-70
2024/01/02 09:05:23;;;;;;;1999.90;999.90;;;11.00;99.90;;;;;;5028205;28;20325;-70
2024/01/02 09:07:49;;;;;;;1999.90;999.90;;;11.10;99.90;;;;;;5037573;28;20348;-70
2024/01/02 09:10:14;;;;;;;1999.90;999.90;;;11.10;99.90;;;;;;5036400;28;20029;-70
2024/01/02 09:12:40;;;;;;;1999.90;999.90;;;11.20;99.90;;;;;;5028354;28;20121;-71
2024/01/02 09:15:08;;;;;;;1999.90;999.90;;;11.20;99.90;;;;;;5029980;28;20032;-71
2024/01/02 09:17:34;;;;;;;1999.90;999.90;;;11.20;99.90;;;;;;5029523;28;20022;-70
2024/01/02 09:19:59;;;;;;;1999.90;999.90;;;11.20;99.90;;;;;;5017912;28;20562;-70
2024/01/02 09:22:25;;;;;;;1999.90;999.90;;;11.20;99.90;;;;;;5029243;28;20061;-70
2024/01/02 09:24:53;;;;;;;1999.90;999.90;;;11.20;99.90;;;;;;5021260;28;20092;-70
2024/01/02 09:27:22;;;;;;;1999.90;999.90;;;11.20;99.90;;;;;;5024228;28;20030;-70
2024/01/02 09:29:47;;;;;;;1999.90;999.90;;;11.20;99.90;;;;;;5026401;28;20033;-71
2024/01/02 09:32:16;;;;;;;1999.90;999.90;;;11.20;99.90;;;;;;5024860;28;20030;-70
2024/01/02 09:34:42;;;;;;;1999.90;999.90;;;11.30;99.90;;;;;;5027606;28;20509;-71
2024/01/02 09:37:07;;;;;;;1999.90;999.90;;;11.30;99.90;;;;;;5026209;28;20095;-71
2024/01/02 09:39:33;;;;;;;1999.90;999.90;;;11.30;99.90;;;;;;5030489;28;20071;-70
2024/01/02 09:42:18;;;;;;;1999.90;999.90;;;11.30;99.90;;;;;;5020235;28;20709;-70
2024/01/02 09:45:41;;;;;;;1999.90;999.90;;;11.40;99.90;;;;;;5028923;28;20037;-70
2024/01/02 09:48:59;;;;;;;1999.90;999.90;;;11.40;99.90;;;;;;5051282;28;20498;-70
2024/01/02 09:51:55;;;;;;;1999.90;999.90;;;11.40;99.90;;;;;;4992493;28;20042;-70
2024/01/02 09:54:34;;;;;;;1999.90;999.90;;;11.40;99.90;;;;;;4991828;28;20026;-70
2024/01/02 09:57:19;;;;;;;1999.90;999.90;;;11.40;99.90;;;;;;4991669;28;20038;-70
2024/01/02 10:00:07;;;;;;;1999.90;999.90;;;11.40;99.90;;;;;;4973975;28;20117;-70
2024/01/02 10:02:38;;;;;;;1999.90;999.90;;;11.50;99.90;;;;;;4991916;28;20048;-70
2024/01/02 10:05:34;;;;;;;1999.90;999.90;;;11.50;99.90;;;;;;4992005;28;20027;-70
2024/01/02 10:08:26;;;;;;;1999.90;999.90;;;11.50;99.90;;;;;;4991227;28;20261;-70
2024/01/02 10:10:55;;;;;;;1999.90;999.90;;;11.50;99.90;;;;;;4988129;28;20035;-70
2024/01/02 10:13:23;;;;;;;1999.90;999.90;;;11.50;99.90;;;;;;4988696;28;20046;-70
2024/01/02 10:16:13;;;;;;;1999.90;999.90;;;11.50;99.90;;;;;;4991386;28;20062;-70
2024/01/02 10:19:06;;;;;;;1999.90;999.90;;;11.50;99.90;;;;;;4987278;28;20118;-70
2024/01/02 10:21:45;;;;;;;1999.90;999.90;;;11.50;99.90;;;;;;4987056;28;20344;-70
2024/01/02 10:24:21;;;;;;;1999.90;999.90;;;11.60;99.90;;;;;;5024744;28;20107;-70
2024/01/02 10:27:14;;;;;;;1999.90;999.90;;;11.60;99.90;;;;;;5023017;28;20075;-70
2024/01/02 10:30:06;;;;;;;1999.90;999.90;;;11.60;99.90;;;;;;5031945;28;20124;-70
2024/01/02 10:32:54;;;;;;;1999.90;999.90;;;11.70;99.90;;;;;;5027445;28;20051;-70
2024/01/02 10:35:22;;;;;;;1999.90;999.90;;;11.70;99.90;;;;;;5032932;28;20033;-70
2024/01/02 10:38:25;;;;;;;1999.90;999.90;;;11.70;99.90;;;;;;5051300;28;20070;-70
2024/01/02 10:41:14;;;;;;;1999.90;999.90;;;11.70;99.90;;;;;;5036202;28;20040;-70
2024/01/02 10:44:06;;;;;;;1999.90;999.90;;;11.70;99.90;;;;;;5027819;28;20458;-70
2024/01/02 10:46:46;;;;;;;1999.90;999.90;;;11.80;99.90;;;;;;5031120;28;20021;-70
2024/01/02 10:49:42;;;;;;;1999.90;999.90;;;11.80;99.90;;;;;;5032743;28;20049;-70
2024/01/02 10:52:21;;;;;;;1999.90;999.90;;;11.80;99.90;;;;;;5040192;28;20029;-71
2024/01/02 10:54:56;;;;;;;1999.90;999.90;;;11.80;99.90;;;;;;5031423;28;20440;-70
2024/01/02 10:57:52;;;;;;;1999.90;999.90;;;11.80;99.90;;;;;;5036864;28;20037;-70
2024/01/02 11:00:22;;;;;;;1999.90;999.90;;;11.80;99.90;;;;;;5032075;28;20032;-71
2024/01/02 11:02:57;;;;;;;1999.90;999.90;;;11.80;99.90;;;;;;5036353;28;20030;-70
2024/01/02 11:05:39;;;;;;;1999.90;999.90;;;11.80;99.90;;;;;;5031858;28;20040;-70
2024/01/02 11:08:18;;;;;;;1999.90;999.90;;;11.80;99.90;;;;;;5017887;28;20581;-70
2024/01/02 11:10:57;;;;;;;1999.90;999.90;;;11.70;99.90;;;;;;5023747;28;20052;-70
2024/01/02 11:13:27;;;;;;;1999.90;999.90;;;11.70;99.90;;;;;;5032586;28;20024;-70
2024/01/02 11:15:58;;;;;;;1999.90;999.90;;;11.80;99.90;;;;;;5033327;28;20021;-70
2024/01/02 11:18:27;;;;;;;1999.90;999.90;;;11.70;99.90;;;;;;5032169;28;20040;-70
2024/01/02 11:21:21;;;;;;;1999.90;999.90;;;11.70;99.90;;;;;;5031514;28;20412;-70
2024/01/02 11:23:53;;;;;;;1999.90;999.90;;;11.70;99.90;;;;;;5025738;28;20018;-70
2024/01/02 11:26:41;;;;;;;1999.90;999.90;;;11.70;99.90;;;;;;5020952;28;20041;-70
2024/01/02 11:29:15;;;;;;;1999.90;999.90;;;11.80;99.90;;;;;;5023357;28;20048;-70
2024/01/02 11:31:42;;;;;;;1999.90;999.90;;;11.70;99.90;;;;;;5039132;28;20021;-71
2024/01/02 11:34:26;;;;;;;;;;;11.70;99.90;;;;;;5032165;28;20029;-71
2024/01/02 11:36:58;;;;;;;1999.90;999.90;;;11.70;99.90;;;;;;5026458;28;19917;-70
2024/01/02 11:40:01;;;;;;;1999.90;999.90;;;11.80;99.90;;;;;;5042927;28;20439;-71
2024/01/02 11:42:52;;;;;;;1999.90;999.90;;;11.70;99.90;;;;;;5025836;28;20053;-70
2024/01/02 11:45:22;;;;;;;1999.90;999.90;;;11.70;99.90;;;;;;5037428;28;20108;-71
2024/01/02 11:48:51;;;;;;;1999.90;999.90;;;11.70;99.90;;;;;;5032953;28;20017;-71
2024/01/02 11:51:26;;;;;;;1999.90;999.90;;;11.70;99.90;;;;;;5057495;28;20171;-71
2024/01/02 11:54:33;;;;;;;1999.90;999.90;;;11.70;99.90;;;;;;5052873;28;20033;-71
2024/01/02 11:56:59;;;;;;;1999.90;999.90;;;11.60;99.90;;;;;;5042288;28;20709;-71
2024/01/02 11:59:43;;;;;;;1999.90;999.90;;;11.60;99.90;;;;;;5049022;28;20037;-71
2024/01/02 12:02:14;;;;;;;1999.90;999.90;;;11.60;99.90;;;;;;5047809;28;20041;-70
2024/01/02 12:05:01;;;;;;;1999.90;999.90;;;11.60;99.90;;;;;;5050504;28;20028;-70
2024/01/02 12:07:27;;;;;;;;;;;11.60;99.90;;;;;;5037320;28;20021;-70
2024/01/02 12:09:55;;;;;;;1999.90;999.90;;;11.70;99.90;;;;;;5030909;28;20218;-70
2024/01/02 12:12:42;;;;;;;1999.90;999.90;;;11.70;99.90;;;;;;5048520;28;20033;-70
2024/01/02 12:15:20;;;;;;;1999.90;999.90;;;11.70;99.90;;;;;;5054255;28;20032;-70